Time;durP1;ratioP1;P1;durP2;ratioP2;P2;SDS_P1;SDS_P2;PMS_P1;PMS_P2;Temp;Humidity;BMP_temperature;BMP_pressure;BME280_temperature;BME280_humidity;BME280_pressure;Samples;Min_cycle;Max_cycle;Signal;HPM_P1;HPM_P2
2022/07/20 00:00:37;;;;;;;5.28;3.15;;;24.10;71.10;;;;;;4935013;29;20503;-75
2022/07/20 00:03:08;;;;;;;4.90;3.67;;;24.10;70.90;;;;;;4934597;29;20102;-81
2022/07/20 00:05:35;;;;;;;3.40;3.05;;;24.00;71.70;;;;;;4934640;29;20119;-75
2022/07/20 00:08:00;;;;;;;4.00;3.17;;;24.00;72.50;;;;;;4935014;29;20052;-79
2022/07/20 00:13:12;;;;;;;4.72;3.17;;;23.90;71.70;;;;;;4934987;29;20062;-78
2022/07/20 00:15:38;;;;;;;4.13;3.70;;;23.70;73.60;;;;;;4934982;29;20456;-76
2022/07/20 00:18:04;;;;;;;3.45;3.10;;;23.70;73.00;;;;;;4934122;29;20063;-82
2022/07/20 00:20:30;;;;;;;4.78;3.75;;;23.50;73.60;;;;;;4935113;29;20051;-78
2022/07/20 00:22:58;;;;;;;7.93;3.90;;;23.50;75.00;;;;;;4934713;29;20369;-77
2022/07/20 00:25:25;;;;;;;6.30;3.67;;;23.40;75.90;;;;;;4936790;29;20047;-81
2022/07/20 00:27:51;;;;;;;6.38;3.70;;;23.40;74.70;;;;;;4939088;29;20035;-80
2022/07/20 00:30:17;;;;;;;6.82;3.60;;;23.30;75.20;;;;;;4938714;29;20559;-78
2022/07/20 00:32:43;;;;;;;4.05;3.55;;;23.20;74.80;;;;;;4938731;29;20039;-76
2022/07/20 00:35:11;;;;;;;4.00;3.67;;;23.10;75.10;;;;;;4938262;29;20040;-78
2022/07/20 00:37:37;;;;;;;3.92;3.45;;;23.00;75.50;;;;;;4938667;29;20257;-79
2022/07/20 00:40:05;;;;;;;4.57;3.10;;;23.00;76.50;;;;;;4938573;29;20055;-77
2022/07/20 00:42:31;;;;;;;5.07;3.83;;;22.90;77.30;;;;;;4938985;29;20059;-79
2022/07/20 00:44:56;;;;;;;3.95;3.60;;;22.80;77.90;;;;;;4939066;29;20426;-77
2022/07/20 00:47:22;;;;;;;4.55;4.10;;;22.80;78.00;;;;;;4938362;29;20047;-77
2022/07/20 00:49:48;;;;;;;6.20;3.60;;;22.80;79.20;;;;;;4938351;29;20058;-80
2022/07/20 00:52:14;;;;;;;5.03;3.53;;;22.70;79.40;;;;;;4937468;29;20139;-83
2022/07/20 00:54:40;;;;;;;3.78;3.47;;;22.60;78.30;;;;;;4938284;29;20056;-82
2022/07/20 00:57:06;;;;;;;4.13;3.70;;;22.60;78.30;;;;;;4937577;29;20055;-80
2022/07/20 00:59:31;;;;;;;5.32;3.10;;;22.60;79.00;;;;;;4938325;29;20070;-79
2022/07/20 01:01:57;;;;;;;6.82;3.22;;;22.50;81.10;;;;;;4938350;29;20511;-80
2022/07/20 01:04:23;;;;;;;4.28;3.88;;;22.50;80.20;;;;;;4938487;29;20495;-78
2022/07/20 01:06:49;;;;;;;3.78;3.40;;;22.50;80.30;;;;;;4937939;29;20044;-82
2022/07/20 01:09:17;;;;;;;3.42;3.13;;;22.50;80.80;;;;;;4938099;29;20044;-80
2022/07/20 01:11:44;;;;;;;4.07;3.67;;;22.50;82.90;;;;;;4938269;29;20059;-83
2022/07/20 01:14:11;;;;;;;4.45;3.40;;;22.50;80.00;;;;;;4938032;29;20082;-79
2022/07/20 01:16:38;;;;;;;3.60;3.17;;;22.40;80.30;;;;;;4938596;29;20050;-79
2022/07/20 01:19:05;;;;;;;4.07;3.58;;;22.40;81.00;;;;;;4938046;29;20070;-83
2022/07/20 01:21:31;;;;;;;4.95;3.25;;;22.40;81.30;;;;;;4938031;29;20179;-75
2022/07/20 01:23:57;;;;;;;6.40;4.45;;;22.30;80.70;;;;;;4937432;29;20047;-78
2022/07/20 01:26:23;;;;;;;5.78;4.32;;;22.20;80.10;;;;;;4938092;29;20043;-75
2022/07/20 01:28:49;;;;;;;5.60;3.30;;;22.20;80.60;;;;;;4937797;29;20503;-82
2022/07/20 01:31:15;;;;;;;6.07;3.58;;;22.20;80.60;;;;;;4937818;29;20593;-80
2022/07/20 01:33:41;;;;;;;6.10;3.90;;;22.20;80.40;;;;;;4937653;29;20118;-80
2022/07/20 01:36:07;;;;;;;5.13;3.85;;;22.10;80.50;;;;;;4937313;29;20132;-79
2022/07/20 01:38:33;;;;;;;4.00;3.70;;;22.10;81.50;;;;;;4937578;29;20064;-77
2022/07/20 01:40:58;;;;;;;4.30;3.17;;;22.00;81.70;;;;;;4936502;29;20060;-81
2022/07/20 01:43:24;;;;;;;3.58;3.28;;;22.00;82.30;;;;;;4937446;29;20058;-79
2022/07/20 01:45:50;;;;;;;5.30;3.33;;;21.90;82.00;;;;;;4937154;29;20051;-78
2022/07/20 01:48:15;;;;;;;6.88;3.55;;;21.90;82.20;;;;;;4937383;29;20047;-79
2022/07/20 01:50:41;;;;;;;6.30;3.80;;;21.80;81.50;;;;;;4936537;29;20050;-81
2022/07/20 01:53:08;;;;;;;6.20;4.25;;;21.70;80.10;;;;;;4936997;29;20052;-78
2022/07/20 01:55:34;;;;;;;6.30;3.83;;;21.70;79.70;;;;;;4937516;29;20051;-81
2022/07/20 01:57:59;;;;;;;5.30;3.70;;;21.70;81.10;;;;;;4937247;29;20055;-80
2022/07/20 02:00:25;;;;;;;6.05;3.88;;;21.70;82.60;;;;;;4937361;29;20044;-80
2022/07/20 02:02:51;;;;;;;4.68;3.50;;;21.70;83.00;;;;;;4920622;29;20055;-79
2022/07/20 02:05:18;;;;;;;5.88;3.67;;;21.60;83.20;;;;;;4937505;29;20047;-78
2022/07/20 02:07:44;;;;;;;3.90;3.38;;;21.50;83.40;;;;;;4937184;29;20044;-81
2022/07/20 02:10:11;;;;;;;5.63;3.80;;;21.50;83.20;;;;;;4936370;29;20047;-79
2022/07/20 02:12:37;;;;;;;4.55;3.75;;;21.50;84.20;;;;;;4936888;29;20079;-78
2022/07/20 02:15:06;;;;;;;11.20;3.70;;;21.40;85.20;;;;;;4937164;29;20103;-75
2022/07/20 02:17:31;;;;;;;7.00;3.75;;;21.30;85.20;;;;;;4937095;29;20111;-80
2022/07/20 02:19:57;;;;;;;5.82;3.50;;;21.30;86.20;;;;;;4936603;29;20051;-78
2022/07/20 02:22:23;;;;;;;6.63;3.80;;;21.20;85.20;;;;;;4935826;29;20074;-79
2022/07/20 02:24:48;;;;;;;4.93;3.47;;;21.20;85.00;;;;;;4936692;29;20086;-80
2022/07/20 02:27:14;;;;;;;8.15;3.47;;;21.10;86.20;;;;;;4936272;29;20044;-80
2022/07/20 02:29:40;;;;;;;3.85;3.35;;;21.10;85.90;;;;;;4936447;29;20055;-80
2022/07/20 02:32:06;;;;;;;11.70;4.38;;;21.10;86.40;;;;;;4936803;29;20075;-79
2022/07/20 02:34:32;;;;;;;6.47;3.67;;;21.00;86.40;;;;;;4936521;29;20047;-79
2022/07/20 02:36:57;;;;;;;6.65;4.00;;;21.00;88.10;;;;;;4936464;29;20168;-81
2022/07/20 02:39:23;;;;;;;5.97;4.22;;;20.90;87.30;;;;;;4936891;29;20488;-79
2022/07/20 02:41:49;;;;;;;5.93;4.03;;;20.80;86.60;;;;;;4936852;29;20048;-82
2022/07/20 02:44:14;;;;;;;4.38;3.53;;;20.80;87.10;;;;;;4936647;29;20052;-79
2022/07/20 02:46:40;;;;;;;6.05;4.03;;;20.80;87.70;;;;;;4936218;29;20123;-83
2022/07/20 02:49:07;;;;;;;5.70;3.75;;;20.80;88.00;;;;;;4935590;29;20400;-77
2022/07/20 02:51:33;;;;;;;6.07;3.88;;;20.80;88.10;;;;;;4936129;29;20063;-83
2022/07/20 02:53:58;;;;;;;7.07;3.17;;;20.80;88.30;;;;;;4936027;29;20043;-80
2022/07/20 02:56:24;;;;;;;5.28;3.22;;;20.70;88.30;;;;;;4935300;29;20042;-80
2022/07/20 02:58:50;;;;;;;6.35;3.80;;;20.70;88.20;;;;;;4935968;29;20064;-80
2022/07/20 03:01:16;;;;;;;3.70;3.40;;;20.70;88.30;;;;;;4919208;29;20055;-77
2022/07/20 03:03:42;;;;;;;7.00;3.78;;;20.60;87.80;;;;;;4936188;29;20082;-76
2022/07/20 03:06:09;;;;;;;9.80;4.07;;;20.60;88.50;;;;;;4935782;29;20048;-76
2022/07/20 03:08:35;;;;;;;3.85;3.20;;;20.60;89.20;;;;;;4935819;29;20059;-80
2022/07/20 03:11:01;;;;;;;5.88;3.80;;;20.60;89.80;;;;;;4936143;29;20048;-82
2022/07/20 03:13:27;;;;;;;4.60;3.08;;;20.50;90.00;;;;;;4935889;29;20217;-77
2022/07/20 03:15:53;;;;;;;4.68;3.55;;;20.50;90.30;;;;;;4934857;29;20060;-81
2022/07/20 03:18:19;;;;;;;4.22;3.67;;;20.50;90.50;;;;;;4935536;29;20090;-79
2022/07/20 03:20:45;;;;;;;7.80;3.97;;;20.50;90.40;;;;;;4935634;29;20083;-77
2022/07/20 03:23:11;;;;;;;2.90;2.70;;;20.40;90.10;;;;;;4935487;29;20047;-75
2022/07/20 03:25:36;;;;;;;4.25;3.22;;;20.50;91.10;;;;;;4935517;29;20469;-77
2022/07/20 03:28:02;;;;;;;3.45;3.15;;;20.50;91.40;;;;;;4935281;29;20507;-76
2022/07/20 03:30:29;;;;;;;4.78;3.28;;;20.60;91.60;;;;;;4935240;29;20118;-80
2022/07/20 03:32:56;;;;;;;3.10;2.80;;;20.60;91.80;;;;;;4935367;29;20056;-79
2022/07/20 03:35:22;;;;;;;5.63;3.47;;;20.70;92.10;;;;;;4935203;29;20119;-75
2022/07/20 03:37:48;;;;;;;4.63;2.90;;;20.60;91.40;;;;;;4935664;29;20169;-77
2022/07/20 03:40:14;;;;;;;4.68;3.03;;;20.70;91.40;;;;;;4935422;29;20476;-80
2022/07/20 03:42:40;;;;;;;3.70;3.40;;;20.70;91.10;;;;;;4934553;29;20064;-79
2022/07/20 03:45:06;;;;;;;4.00;2.80;;;20.70;90.90;;;;;;4935182;29;20044;-78
2022/07/20 03:47:33;;;;;;;3.80;3.50;;;20.70;91.20;;;;;;4935233;29;20051;-76
2022/07/20 03:49:59;;;;;;;4.65;3.15;;;20.70;90.50;;;;;;4935089;29;20114;-78
2022/07/20 03:52:25;;;;;;;5.00;3.35;;;20.80;90.70;;;;;;4934156;29;20052;-82
2022/07/20 03:54:51;;;;;;;3.60;3.30;;;20.90;91.00;;;;;;4934015;29;20142;-79
2022/07/20 03:57:17;;;;;;;5.40;3.80;;;20.90;90.60;;;;;;4933965;29;20208;-76
2022/07/20 03:59:42;;;;;;;6.18;3.80;;;20.90;90.30;;;;;;4934895;29;20495;-75
2022/07/20 04:02:08;;;;;;;4.28;3.30;;;20.90;90.50;;;;;;4933613;29;20480;-80
2022/07/20 04:04:34;;;;;;;4.05;3.58;;;20.80;90.60;;;;;;4934943;29;20048;-78
2022/07/20 04:06:59;;;;;;;8.13;4.13;;;20.90;91.40;;;;;;4935037;29;20130;-79
2022/07/20 04:09:43;;;;;;;4.32;3.42;;;20.80;90.60;;;;;;4934830;29;20445;-80
2022/07/20 04:12:11;;;;;;;4.15;3.75;;;20.70;91.00;;;;;;4935072;29;20052;-79
2022/07/20 04:14:36;;;;;;;3.80;3.40;;;20.70;90.60;;;;;;4934782;29;20075;-80
2022/07/20 04:17:02;;;;;;;5.80;4.00;;;20.70;91.20;;;;;;4934461;29;20448;-76
2022/07/20 04:19:28;;;;;;;3.60;3.00;;;20.80;90.80;;;;;;4934776;29;20051;-80
2022/07/20 04:21:55;;;;;;;4.28;3.88;;;20.70;90.90;;;;;;4934777;29;20130;-79
2022/07/20 04:24:21;;;;;;;4.25;3.28;;;20.80;90.30;;;;;;4934635;29;20079;-77
2022/07/20 04:26:47;;;;;;;5.25;3.72;;;20.80;90.10;;;;;;4933725;29;20058;-78
2022/07/20 04:29:13;;;;;;;5.05;4.00;;;20.90;89.30;;;;;;4933723;29;20143;-76
2022/07/20 04:31:38;;;;;;;3.55;3.10;;;21.00;90.50;;;;;;4934980;29;20449;-76
2022/07/20 04:34:04;;;;;;;3.95;3.58;;;21.00;90.30;;;;;;4934599;29;20047;-73
2022/07/20 04:36:30;;;;;;;3.45;3.03;;;21.00;90.20;;;;;;4934536;29;20048;-76
2022/07/20 04:38:55;;;;;;;6.25;3.75;;;21.20;90.80;;;;;;4933257;29;20044;-75
2022/07/20 04:41:21;;;;;;;4.15;3.50;;;21.30;90.20;;;;;;4934640;29;20151;-74
2022/07/20 04:43:47;;;;;;;4.20;3.30;;;21.30;90.10;;;;;;4933461;29;20054;-75
2022/07/20 04:46:12;;;;;;;3.40;3.10;;;21.50;90.50;;;;;;4934875;29;20060;-73
2022/07/20 04:48:38;;;;;;;4.55;3.60;;;21.50;90.30;;;;;;4934062;29;20131;-78
2022/07/20 04:51:04;;;;;;;5.93;4.10;;;21.50;89.80;;;;;;4933332;29;20114;-77
2022/07/20 04:53:29;;;;;;;4.22;3.60;;;21.60;90.00;;;;;;4934371;29;20084;-76
2022/07/20 04:55:55;;;;;;;8.02;3.72;;;21.70;88.30;;;;;;4933160;29;20039;-73
2022/07/20 04:58:21;;;;;;;5.97;4.38;;;21.70;87.50;;;;;;4933800;29;20060;-76
2022/07/20 05:00:46;;;;;;;3.03;2.75;;;21.70;88.30;;;;;;4932923;29;20050;-77
2022/07/20 05:03:12;;;;;;;3.95;3.53;;;21.80;89.20;;;;;;4934153;29;20050;-76
2022/07/20 05:05:38;;;;;;;3.88;3.47;;;21.80;90.10;;;;;;4934369;29;20071;-72
2022/07/20 05:08:04;;;;;;;6.35;3.50;;;21.90;89.10;;;;;;4934197;29;20044;-76
2022/07/20 05:10:29;;;;;;;5.13;3.60;;;21.90;90.00;;;;;;4934621;29;20679;-78
2022/07/20 05:12:55;;;;;;;3.58;3.10;;;22.00;89.50;;;;;;4936081;29;20430;-75
2022/07/20 05:15:23;;;;;;;5.40;3.88;;;22.00;90.00;;;;;;4937648;29;20048;-75
2022/07/20 05:17:49;;;;;;;5.05;3.60;;;22.10;89.70;;;;;;4937088;29;20510;-76
2022/07/20 05:20:15;;;;;;;4.25;3.67;;;22.10;88.40;;;;;;4936429;29;20449;-78
2022/07/20 05:22:41;;;;;;;5.85;4.20;;;22.20;88.80;;;;;;4937187;29;20047;-74
2022/07/20 05:25:07;;;;;;;5.20;3.95;;;22.20;87.70;;;;;;4937308;29;20049;-76
2022/07/20 05:27:33;;;;;;;6.68;4.40;;;22.10;88.30;;;;;;4937417;29;20099;-77
2022/07/20 05:29:59;;;;;;;5.32;4.07;;;22.10;88.90;;;;;;4937277;29;20043;-75
2022/07/20 05:32:24;;;;;;;4.95;4.55;;;22.10;89.20;;;;;;4936062;29;20060;-78
2022/07/20 05:34:50;;;;;;;7.00;4.18;;;22.10;89.40;;;;;;4935869;29;20051;-76
2022/07/20 05:37:16;;;;;;;4.53;4.00;;;22.20;90.10;;;;;;4937470;29;20438;-75
2022/07/20 05:39:41;;;;;;;6.22;3.42;;;22.30;89.80;;;;;;4937345;29;20044;-76
2022/07/20 05:42:07;;;;;;;5.32;4.30;;;22.30;90.00;;;;;;4936872;29;20056;-81
2022/07/20 05:44:33;;;;;;;5.45;4.60;;;22.50;90.00;;;;;;4937695;29;20095;-80
2022/07/20 05:46:58;;;;;;;4.88;3.63;;;22.50;89.50;;;;;;4936408;29;20118;-79
2022/07/20 05:49:24;;;;;;;5.50;4.18;;;22.70;89.60;;;;;;4937397;29;20043;-79
2022/07/20 05:51:50;;;;;;;4.88;4.30;;;22.70;88.60;;;;;;4937595;29;20059;-79
2022/07/20 05:54:16;;;;;;;6.07;4.40;;;22.80;88.60;;;;;;4937147;29;20589;-80
2022/07/20 05:56:41;;;;;;;7.03;4.68;;;22.90;88.30;;;;;;4935993;29;20055;-78
2022/07/20 05:59:07;;;;;;;6.22;4.55;;;23.00;88.10;;;;;;4936738;29;20059;-79
2022/07/20 06:01:33;;;;;;;5.53;4.40;;;23.10;87.80;;;;;;4935403;29;20126;-81
2022/07/20 06:03:59;;;;;;;5.13;3.70;;;23.20;87.80;;;;;;4937073;29;20051;-79
2022/07/20 06:06:25;;;;;;;4.47;4.07;;;23.30;88.10;;;;;;4936915;29;20051;-80
2022/07/20 06:08:51;;;;;;;4.47;4.07;;;23.40;87.80;;;;;;4937165;29;20052;-78
2022/07/20 06:11:16;;;;;;;9.65;4.78;;;23.50;87.70;;;;;;4936673;29;20051;-79
2022/07/20 06:13:42;;;;;;;7.80;4.25;;;23.70;88.10;;;;;;4937355;29;20044;-78
2022/07/20 06:16:08;;;;;;;4.82;4.05;;;23.80;87.40;;;;;;4936956;29;20044;-80
2022/07/20 06:18:33;;;;;;;5.45;4.22;;;24.00;87.80;;;;;;4936537;29;20193;-80
2022/07/20 06:20:59;;;;;;;5.10;3.90;;;24.10;88.60;;;;;;4936661;29;20059;-79
2022/07/20 06:23:25;;;;;;;6.15;4.43;;;24.30;89.10;;;;;;4935355;29;20051;-79
2022/07/20 06:25:51;;;;;;;4.97;4.00;;;24.40;88.70;;;;;;4935617;29;20123;-79
2022/07/20 06:28:17;;;;;;;4.32;3.90;;;24.70;87.10;;;;;;4936866;29;20048;-77
2022/07/20 06:30:42;;;;;;;4.85;4.07;;;25.00;85.00;;;;;;4936826;29;20463;-76
2022/07/20 06:33:08;;;;;;;4.53;3.70;;;25.30;83.90;;;;;;4936204;29;20067;-77
2022/07/20 06:35:34;;;;;;;4.85;4.28;;;25.70;82.30;;;;;;4935686;29;20135;-80
2022/07/20 06:38:00;;;;;;;6.05;4.75;;;26.70;79.10;;;;;;4936595;29;20067;-76
2022/07/20 06:40:25;;;;;;;6.68;4.38;;;28.10;77.40;;;;;;4936100;29;20047;-79
2022/07/20 06:42:51;;;;;;;5.88;4.53;;;29.30;73.90;;;;;;4936118;29;20059;-78
2022/07/20 06:45:17;;;;;;;4.53;3.63;;;30.40;70.80;;;;;;4936271;29;20135;-78
2022/07/20 06:47:42;;;;;;;19.88;4.57;;;31.30;70.70;;;;;;4936408;29;20465;-78
2022/07/20 06:50:09;;;;;;;8.32;3.97;;;32.20;68.90;;;;;;4935698;29;20107;-78
2022/07/20 06:52:34;;;;;;;5.03;4.05;;;32.60;67.40;;;;;;4936327;29;20111;-80
2022/07/20 06:55:01;;;;;;;5.70;4.78;;;33.00;65.70;;;;;;4935971;29;20080;-76
2022/07/20 06:57:26;;;;;;;7.80;4.28;;;33.60;64.90;;;;;;4935440;29;20051;-78
2022/07/20 06:59:52;;;;;;;6.45;5.40;;;34.10;63.70;;;;;;4935965;29;20110;-79
2022/07/20 07:02:18;;;;;;;9.20;4.47;;;34.30;62.80;;;;;;4934695;29;20439;-79
2022/07/20 07:04:44;;;;;;;7.45;4.07;;;34.40;62.00;;;;;;4935883;29;20052;-78
2022/07/20 07:07:09;;;;;;;10.27;4.25;;;34.50;61.40;;;;;;4935483;29;20130;-79
2022/07/20 07:09:35;;;;;;;6.78;4.22;;;34.90;61.10;;;;;;4935605;29;20055;-79
2022/07/20 07:12:01;;;;;;;3.85;3.50;;;34.80;58.30;;;;;;4935628;29;20553;-81
2022/07/20 07:14:26;;;;;;;6.35;4.50;;;35.30;59.60;;;;;;4935304;29;20209;-77
2022/07/20 07:16:55;;;;;;;6.72;4.18;;;35.10;58.90;;;;;;4935255;29;20063;-76
2022/07/20 07:19:21;;;;;;;4.35;3.85;;;35.00;58.10;;;;;;4935049;29;20149;-77
2022/07/20 07:21:47;;;;;;;6.32;4.70;;;35.10;58.10;;;;;;4935674;29;20130;-71
2022/07/20 07:24:12;;;;;;;6.05;4.38;;;35.10;57.70;;;;;;4935151;29;20483;-71
2022/07/20 07:26:38;;;;;;;6.82;4.65;;;35.50;57.60;;;;;;4935101;29;20054;-71
2022/07/20 07:29:04;;;;;;;6.43;4.90;;;35.90;57.40;;;;;;4935066;29;20054;-71
2022/07/20 07:31:30;;;;;;;7.78;4.60;;;36.10;57.20;;;;;;4934801;29;20515;-72
2022/07/20 07:33:55;;;;;;;7.72;4.32;;;36.30;57.00;;;;;;4935033;29;20102;-72
2022/07/20 07:36:22;;;;;;;7.85;5.03;;;36.10;56.60;;;;;;4934332;29;20467;-71
2022/07/20 07:38:47;;;;;;;7.25;4.70;;;36.30;56.00;;;;;;4933601;29;20107;-71
2022/07/20 07:41:13;;;;;;;4.80;4.40;;;36.00;54.60;;;;;;4934526;29;20071;-71
2022/07/20 07:43:39;;;;;;;7.80;4.70;;;36.10;56.20;;;;;;4934826;29;20047;-71
2022/07/20 07:46:05;;;;;;;5.60;4.70;;;36.00;56.00;;;;;;4935100;29;20052;-71
2022/07/20 07:48:31;;;;;;;7.22;4.25;;;36.30;56.10;;;;;;4934765;29;20418;-71
2022/07/20 07:50:57;;;;;;;5.65;4.60;;;36.40;56.00;;;;;;4934852;29;20173;-72
2022/07/20 07:53:23;;;;;;;6.35;4.57;;;36.80;56.10;;;;;;4935041;29;20047;-71
2022/07/20 07:55:48;;;;;;;6.55;4.55;;;37.10;55.70;;;;;;4934844;29;20194;-71
2022/07/20 07:58:14;;;;;;;5.03;4.63;;;37.10;55.80;;;;;;4918322;29;20437;-71
2022/07/20 08:00:40;;;;;;;6.15;5.55;;;37.30;55.90;;;;;;4934492;29;20051;-72
2022/07/20 08:03:06;;;;;;;9.10;6.00;;;37.70;55.80;;;;;;4934513;29;20083;-71
2022/07/20 08:05:32;;;;;;;9.95;6.57;;;37.80;55.50;;;;;;4934671;29;20098;-71
2022/07/20 08:08:05;;;;;;;6.30;5.65;;;37.40;55.30;;;;;;4934578;29;20541;-71
2022/07/20 08:10:31;;;;;;;7.00;6.00;;;37.80;54.80;;;;;;4934386;29;20048;-71
2022/07/20 08:12:57;;;;;;;7.78;5.05;;;37.40;55.80;;;;;;4934387;29;20138;-73
2022/07/20 08:15:23;;;;;;;7.97;6.75;;;37.80;56.10;;;;;;4934857;29;20052;-71
2022/07/20 08:17:48;;;;;;;9.43;6.78;;;37.70;56.20;;;;;;4934501;29;20547;-71
2022/07/20 08:20:14;;;;;;;7.90;7.18;;;37.40;56.30;;;;;;4933378;29;20495;-70
2022/07/20 08:22:40;;;;;;;9.85;7.32;;;37.40;56.30;;;;;;4934824;29;20339;-76
2022/07/20 08:25:06;;;;;;;9.35;8.20;;;37.60;56.70;;;;;;4934524;29;20044;-75
2022/07/20 08:27:32;;;;;;;10.98;8.30;;;37.40;56.80;;;;;;4933508;29;20050;-75
2022/07/20 08:30:01;;;;;;;10.57;9.27;;;37.60;57.10;;;;;;4934355;29;20048;-74
2022/07/20 08:32:27;;;;;;;10.40;8.73;;;37.40;57.30;;;;;;4934823;29;20131;-74
2022/07/20 08:34:53;;;;;;;9.57;8.55;;;37.20;57.60;;;;;;4934488;29;20043;-76
2022/07/20 08:37:19;;;;;;;16.02;10.70;;;37.00;58.40;;;;;;4934324;29;20095;-74
2022/07/20 08:39:45;;;;;;;15.88;9.35;;;36.90;58.30;;;;;;4934245;29;20078;-74
2022/07/20 08:42:12;;;;;;;14.48;10.55;;;36.70;58.50;;;;;;4934234;29;20071;-76
2022/07/20 08:44:42;;;;;;;12.90;10.88;;;37.00;58.80;;;;;;4933958;29;20048;-76
2022/07/20 08:47:11;;;;;;;13.27;11.75;;;36.90;58.60;;;;;;4937233;29;20086;-75
2022/07/20 08:49:46;;;;;;;13.77;11.73;;;36.70;59.00;;;;;;4938091;29;20051;-75
2022/07/20 08:52:12;;;;;;;16.10;13.25;;;36.60;59.30;;;;;;4938306;29;20051;-75
2022/07/20 08:54:38;;;;;;;20.73;13.73;;;36.40;59.80;;;;;;4937825;29;20050;-74
2022/07/20 08:57:11;;;;;;;16.40;13.95;;;36.30;60.10;;;;;;4937876;29;20048;-75
2022/07/20 08:59:37;;;;;;;17.83;14.57;;;35.80;60.50;;;;;;4937857;29;20419;-74
2022/07/20 09:02:07;;;;;;;19.35;14.98;;;35.60;61.40;;;;;;4938225;29;20087;-74
2022/07/20 09:04:47;;;;;;;21.02;15.68;;;35.40;62.00;;;;;;4938116;29;20051;-74
2022/07/20 09:07:13;;;;;;;16.40;14.65;;;35.50;62.10;;;;;;4937731;29;20050;-77
2022/07/20 09:09:39;;;;;;;17.73;15.95;;;35.50;62.30;;;;;;4937449;29;20048;-75
2022/07/20 09:12:05;;;;;;;19.20;16.38;;;35.70;62.10;;;;;;4937874;29;20048;-75
2022/07/20 09:14:48;;;;;;;19.73;16.17;;;35.70;62.20;;;;;;4937432;29;20052;-75
2022/07/20 09:17:22;;;;;;;18.13;15.63;;;36.00;62.80;;;;;;4937361;29;20487;-77
2022/07/20 09:19:58;;;;;;;22.50;17.23;;;36.30;61.90;;;;;;4937241;29;20056;-74
2022/07/20 09:22:35;;;;;;;20.00;16.50;;;36.00;62.00;;;;;;4937780;29;20082;-76
2022/07/20 09:25:12;;;;;;;21.58;15.63;;;35.40;61.90;;;;;;4937301;29;20063;-75
2022/07/20 09:27:39;;;;;;;21.08;16.75;;;35.20;62.30;;;;;;4937409;29;20075;-75
2022/07/20 09:30:09;;;;;;;21.17;17.85;;;34.90;62.70;;;;;;4937122;29;20054;-75
2022/07/20 09:32:48;;;;;;;23.08;17.42;;;34.90;63.20;;;;;;4937479;29;20105;-74
2022/07/20 09:35:14;;;;;;;21.63;18.60;;;35.00;63.10;;;;;;4937615;29;20056;-75
2022/07/20 09:37:39;;;;;;;24.02;17.63;;;34.70;63.20;;;;;;4937690;29;20126;-73
2022/07/20 09:40:06;;;;;;;23.77;17.58;;;34.90;63.50;;;;;;4937352;29;20047;-74
2022/07/20 09:42:37;;;;;;;19.73;16.15;;;34.90;63.60;;;;;;4937530;29;20083;-75
2022/07/20 09:45:29;;;;;;;29.07;18.00;;;34.90;63.60;;;;;;4937546;29;20126;-73
2022/07/20 09:48:09;;;;;;;19.42;16.98;;;34.40;63.20;;;;;;4937218;29;20295;-73
2022/07/20 09:50:38;;;;;;;19.15;16.95;;;34.70;64.30;;;;;;4936860;29;20054;-74
2022/07/20 09:53:06;;;;;;;20.10;17.08;;;34.80;63.90;;;;;;4936766;29;20055;-75
2022/07/20 09:55:33;;;;;;;23.98;17.98;;;34.90;63.60;;;;;;4936719;29;20056;-74
2022/07/20 09:57:59;;;;;;;25.20;18.00;;;35.40;63.60;;;;;;4936595;29;20102;-74
2022/07/20 10:00:25;;;;;;;20.92;17.27;;;35.40;63.20;;;;;;4936948;29;20048;-75
2022/07/20 10:02:54;;;;;;;23.33;17.02;;;35.20;63.30;;;;;;4936291;29;20453;-74
2022/07/20 10:05:22;;;;;;;24.63;17.35;;;35.50;62.40;;;;;;4936664;29;20067;-74
2022/07/20 10:07:48;;;;;;;20.73;16.77;;;35.40;61.80;;;;;;4937049;29;20070;-74
2022/07/20 10:10:15;;;;;;;21.70;16.90;;;35.50;62.10;;;;;;4936638;29;20048;-74
2022/07/20 10:12:41;;;;;;;20.50;15.85;;;35.50;61.40;;;;;;4936516;29;20051;-76
2022/07/20 10:15:23;;;;;;;21.73;16.98;;;35.20;61.20;;;;;;4935076;29;20047;-74
2022/07/20 10:17:49;;;;;;;20.10;16.55;;;35.20;60.80;;;;;;4936915;29;20047;-75
2022/07/20 10:20:31;;;;;;;22.08;17.73;;;35.00;61.10;;;;;;4936367;29;20066;-75
2022/07/20 10:23:24;;;;;;;24.15;16.60;;;34.90;60.70;;;;;;4936315;29;20106;-76
2022/07/20 10:25:49;;;;;;;23.00;16.60;;;34.70;60.00;;;;;;4935842;29;20060;-76
2022/07/20 10:28:32;;;;;;;23.55;16.70;;;35.00;61.70;;;;;;4936256;29;20094;-74
2022/07/20 10:31:08;;;;;;;21.27;16.48;;;35.20;60.80;;;;;;4936340;29;20052;-76
2022/07/20 10:33:36;;;;;;;21.60;15.80;;;35.20;60.70;;;;;;4936193;29;20048;-75
2022/07/20 10:39:45;;;;;;;16.92;14.88;;;35.50;60.60;;;;;;4936604;29;20048;-74
2022/07/20 10:42:25;;;;;;;15.90;14.20;;;35.50;59.70;;;;;;4936511;29;20064;-75
2022/07/20 10:44:51;;;;;;;16.27;14.65;;;35.40;59.50;;;;;;4936361;29;20506;-74
2022/07/20 10:47:40;;;;;;;15.45;13.40;;;35.00;58.70;;;;;;4935999;29;20122;-73
2022/07/20 10:50:07;;;;;;;20.80;13.85;;;34.80;58.10;;;;;;4936161;29;20093;-73
2022/07/20 10:52:34;;;;;;;18.05;13.98;;;34.70;59.10;;;;;;4935631;29;20467;-73
2022/07/20 10:55:01;;;;;;;16.08;13.52;;;34.60;59.20;;;;;;4936015;29;20187;-73
2022/07/20 10:57:27;;;;;;;17.40;14.70;;;34.30;59.30;;;;;;4936154;29;20055;-73
2022/07/20 11:00:01;;;;;;;15.18;13.60;;;34.30;59.90;;;;;;4935885;29;20469;-73
2022/07/20 11:02:26;;;;;;;19.02;13.73;;;34.50;59.90;;;;;;4935713;29;20043;-73
2022/07/20 11:04:52;;;;;;;12.35;10.73;;;34.70;60.10;;;;;;4935765;29;20122;-73
2022/07/20 11:07:34;;;;;;;12.45;11.07;;;34.60;59.10;;;;;;4935254;29;20047;-73
2022/07/20 11:10:17;;;;;;;12.60;10.35;;;34.50;58.00;;;;;;4935119;29;20055;-74
2022/07/20 11:12:43;;;;;;;12.07;10.82;;;34.40;58.50;;;;;;4936075;29;20058;-74
2022/07/20 11:15:09;;;;;;;13.68;10.35;;;34.10;58.20;;;;;;4936264;29;20055;-73
2022/07/20 11:17:35;;;;;;;13.45;10.52;;;34.10;58.60;;;;;;4935490;29;20498;-76
2022/07/20 11:20:01;;;;;;;13.07;11.20;;;33.70;58.40;;;;;;4934857;29;20059;-76
2022/07/20 11:22:27;;;;;;;14.50;11.15;;;33.70;58.50;;;;;;4935872;29;20070;-75
2022/07/20 11:24:54;;;;;;;15.20;10.65;;;33.70;58.70;;;;;;4935707;29;20411;-75
2022/07/20 11:27:20;;;;;;;13.68;11.55;;;33.60;58.40;;;;;;4935661;29;20175;-75
2022/07/20 11:29:51;;;;;;;15.73;11.13;;;33.40;58.60;;;;;;4935551;29;20497;-76
2022/07/20 11:32:18;;;;;;;11.43;10.25;;;33.30;58.70;;;;;;4935485;29;20044;-74
2022/07/20 11:34:53;;;;;;;16.55;10.57;;;33.40;58.90;;;;;;4935417;29;20130;-73
2022/07/20 11:37:20;;;;;;;12.27;10.98;;;33.60;59.60;;;;;;4935663;29;20054;-74
2022/07/20 11:39:47;;;;;;;14.52;10.27;;;33.60;59.60;;;;;;4935215;29;20051;-74
2022/07/20 11:42:14;;;;;;;12.68;10.52;;;33.70;59.40;;;;;;4935689;29;20130;-74
2022/07/20 11:44:41;;;;;;;13.25;10.35;;;33.90;59.10;;;;;;4934814;29;20505;-76
2022/07/20 11:47:07;;;;;;;11.38;10.18;;;33.80;58.70;;;;;;4935109;29;20075;-77
2022/07/20 11:49:33;;;;;;;13.90;9.57;;;33.90;58.80;;;;;;4935257;29;20511;-82
2022/07/20 11:52:01;;;;;;;13.05;8.93;;;33.80;58.30;;;;;;4935316;29;20126;-82
2022/07/20 11:54:29;;;;;;;11.85;9.07;;;33.70;58.50;;;;;;4934109;29;20050;-78
2022/07/20 11:56:55;;;;;;;13.68;9.00;;;33.60;58.30;;;;;;4934999;29;20051;-82
2022/07/20 11:59:22;;;;;;;14.77;9.80;;;33.50;58.30;;;;;;4935486;29;20094;-79
2022/07/20 12:01:51;;;;;;;11.20;10.07;;;33.50;58.60;;;;;;4935209;29;20066;-82
2022/07/20 12:04:19;;;;;;;15.48;9.93;;;33.50;58.80;;;;;;4935815;29;20052;-84
2022/07/20 12:06:45;;;;;;;14.93;9.18;;;33.40;58.60;;;;;;4936058;29;20141;-82
2022/07/20 12:09:16;;;;;;;11.70;8.15;;;33.40;58.60;;;;;;4936186;29;20135;-77
2022/07/20 12:11:59;;;;;;;11.00;8.55;;;33.40;58.10;;;;;;4936590;29;20055;-77
2022/07/20 12:14:30;;;;;;;9.75;8.75;;;33.50;58.80;;;;;;4936945;29;20044;-83
2022/07/20 12:17:08;;;;;;;11.80;8.85;;;33.40;58.20;;;;;;4937718;29;20069;-78
2022/07/20 12:19:34;;;;;;;11.52;8.30;;;33.60;58.10;;;;;;4937429;29;20051;-78
2022/07/20 12:22:00;;;;;;;10.13;7.07;;;33.60;58.00;;;;;;4938188;29;20059;-80
2022/07/20 12:24:26;;;;;;;10.48;7.40;;;33.60;57.80;;;;;;4938598;29;20074;-81
2022/07/20 12:27:04;;;;;;;9.60;8.15;;;33.60;57.60;;;;;;4938963;29;20044;-80
2022/07/20 12:29:30;;;;;;;12.38;8.02;;;33.70;58.80;;;;;;4939106;29;20501;-79
2022/07/20 12:32:05;;;;;;;14.98;8.65;;;33.70;57.60;;;;;;4938823;29;20071;-77
2022/07/20 12:34:51;;;;;;;9.35;7.03;;;33.90;57.50;;;;;;4938563;29;20518;-80
2022/07/20 12:37:17;;;;;;;11.27;7.28;;;33.90;57.60;;;;;;4938393;29;20051;-82
2022/07/20 12:39:48;;;;;;;10.80;6.85;;;33.90;57.30;;;;;;4937396;29;20489;-77
2022/07/20 12:42:15;;;;;;;7.90;7.07;;;33.80;57.30;;;;;;4938323;29;20056;-78
2022/07/20 12:44:43;;;;;;;8.10;6.88;;;33.70;57.60;;;;;;4938031;29;20142;-81
2022/07/20 12:47:09;;;;;;;8.50;7.65;;;33.80;57.80;;;;;;4938177;29;20047;-77